sensor_id;sensor_type;location;lat;lon;timestamp;temperature;humidity
19292;DHT22;9779;51.756;7.450;2022-08-04T00:02:09;25.10;99.90
19292;DHT22;9779;51.756;7.450;2022-08-04T00:04:46;25.10;99.90
19292;DHT22;9779;51.756;7.450;2022-08-04T00:07:28;25.10;99.90
19292;DHT22;9779;51.756;7.450;2022-08-04T00:10:05;25.00;99.90
19292;DHT22;9779;51.756;7.450;2022-08-04T00:12:32;25.00;99.90
19292;DHT22;9779;51.756;7.450;2022-08-04T00:15:00;24.90;99.90
19292;DHT22;9779;51.756;7.450;2022-08-04T00:17:33;24.90;99.90
19292;DHT22;9779;51.756;7.450;2022-08-04T00:27:30;24.70;99.90
19292;DHT22;9779;51.756;7.450;2022-08-04T00:29:57;24.60;99.90
19292;DHT22;9779;51.756;7.450;2022-08-04T00:32:23;24.60;99.90
19292;DHT22;9779;51.756;7.450;2022-08-04T00:34:50;24.60;99.90
19292;DHT22;9779;51.756;7.450;2022-08-04T00:37:20;24.60;99.90
19292;DHT22;9779;51.756;7.450;2022-08-04T00:39:46;24.50;99.90
19292;DHT22;9779;51.756;7.450;2022-08-04T01:01:04;24.20;99.90
19292;DHT22;9779;51.756;7.450;2022-08-04T01:03:50;23.50;99.90
19292;DHT22;9779;51.756;7.450;2022-08-04T01:06:34;24.10;99.90
19292;DHT22;9779;51.756;7.450;2022-08-04T01:09:25;24.10;99.90
19292;DHT22;9779;51.756;7.450;2022-08-04T01:20:08;23.90;99.90
19292;DHT22;9779;51.756;7.450;2022-08-04T01:25:45;23.90;99.90
19292;DHT22;9779;51.756;7.450;2022-08-04T01:34:05;23.80;99.90
19292;DHT22;9779;51.756;7.450;2022-08-04T01:36:35;23.70;99.90
19292;DHT22;9779;51.756;7.450;2022-08-04T01:39:04;23.70;99.90
19292;DHT22;9779;51.756;7.450;2022-08-04T01:41:51;23.70;99.90
19292;DHT22;9779;51.756;7.450;2022-08-04T01:44:17;23.70;99.90
19292;DHT22;9779;51.756;7.450;2022-08-04T01:46:45;23.60;99.90
19292;DHT22;9779;51.756;7.450;2022-08-04T01:49:14;23.60;99.90
19292;DHT22;9779;51.756;7.450;2022-08-04T01:51:43;23.60;99.90
19292;DHT22;9779;51.756;7.450;2022-08-04T01:54:10;23.50;99.90
19292;DHT22;9779;51.756;7.450;2022-08-04T01:56:37;23.50;99.90
19292;DHT22;9779;51.756;7.450;2022-08-04T01:59:03;23.50;99.90
19292;DHT22;9779;51.756;7.450;2022-08-04T02:01:34;23.50;99.90
19292;DHT22;9779;51.756;7.450;2022-08-04T02:04:00;23.40;99.90
19292;DHT22;9779;51.756;7.450;2022-08-04T02:07:16;23.40;99.90
19292;DHT22;9779;51.756;7.450;2022-08-04T02:12:12;23.30;99.90
19292;DHT22;9779;51.756;7.450;2022-08-04T02:14:59;23.30;99.90
19292;DHT22;9779;51.756;7.450;2022-08-04T02:17:42;23.30;99.90
19292;DHT22;9779;51.756;7.450;2022-08-04T02:20:24;23.20;99.90
19292;DHT22;9779;51.756;7.450;2022-08-04T02:23:00;23.20;99.90
19292;DHT22;9779;51.756;7.450;2022-08-04T02:25:28;23.20;99.90
19292;DHT22;9779;51.756;7.450;2022-08-04T02:30:39;23.10;99.90
19292;DHT22;9779;51.756;7.450;2022-08-04T02:33:06;23.10;99.90
19292;DHT22;9779;51.756;7.450;2022-08-04T02:35:35;23.00;99.90
19292;DHT22;9779;51.756;7.450;2022-08-04T02:38:31;23.00;99.90
19292;DHT22;9779;51.756;7.450;2022-08-04T02:40:58;23.00;99.90
19292;DHT22;9779;51.756;7.450;2022-08-04T02:43:27;22.90;99.90
19292;DHT22;9779;51.756;7.450;2022-08-04T02:45:55;22.90;99.90
19292;DHT22;9779;51.756;7.450;2022-08-04T02:48:23;22.90;99.90
19292;DHT22;9779;51.756;7.450;2022-08-04T02:50:52;22.90;99.90
19292;DHT22;9779;51.756;7.450;2022-08-04T02:53:21;22.90;99.90
19292;DHT22;9779;51.756;7.450;2022-08-04T02:55:47;22.90;99.90
19292;DHT22;9779;51.756;7.450;2022-08-04T02:58:15;22.80;99.90
19292;DHT22;9779;51.756;7.450;2022-08-04T03:00:43;22.70;99.90
19292;DHT22;9779;51.756;7.450;2022-08-04T03:12:05;22.70;99.90
19292;DHT22;9779;51.756;7.450;2022-08-04T03:20:46;22.60;99.90
19292;DHT22;9779;51.756;7.450;2022-08-04T03:29:10;22.50;99.90
19292;DHT22;9779;51.756;7.450;2022-08-04T03:32:25;22.50;99.90
19292;DHT22;9779;51.756;7.450;2022-08-04T03:35:26;22.50;99.90
19292;DHT22;9779;51.756;7.450;2022-08-04T03:41:08;22.40;99.90
19292;DHT22;9779;51.756;7.450;2022-08-04T03:57:50;22.20;99.90
19292;DHT22;9779;51.756;7.450;2022-08-04T04:00:36;22.20;99.90
19292;DHT22;9779;51.756;7.450;2022-08-04T04:05:58;22.20;99.90
19292;DHT22;9779;51.756;7.450;2022-08-04T04:11:23;22.10;99.90
19292;DHT22;9779;51.756;7.450;2022-08-04T04:19:32;22.10;99.90
19292;DHT22;9779;51.756;7.450;2022-08-04T04:30:57;22.10;99.90
19292;DHT22;9779;51.756;7.450;2022-08-04T04:33:46;22.10;99.90
19292;DHT22;9779;51.756;7.450;2022-08-04T04:36:54;22.10;99.90
19292;DHT22;9779;51.756;7.450;2022-08-04T04:39:25;22.10;99.90
19292;DHT22;9779;51.756;7.450;2022-08-04T04:42:31;22.10;99.90
19292;DHT22;9779;51.756;7.450;2022-08-04T04:47:51;22.20;99.90
19292;DHT22;9779;51.756;7.450;2022-08-04T04:50:39;22.20;99.90
19292;DHT22;9779;51.756;7.450;2022-08-04T04:53:26;22.20;99.90
19292;DHT22;9779;51.756;7.450;2022-08-04T04:58:52;22.20;99.90
19292;DHT22;9779;51.756;7.450;2022-08-04T05:02:14;22.20;99.90
19292;DHT22;9779;51.756;7.450;2022-08-04T05:08:20;22.20;99.90
19292;DHT22;9779;51.756;7.450;2022-08-04T05:11:03;22.30;99.90
19292;DHT22;9779;51.756;7.450;2022-08-04T05:13:51;22.30;99.90
19292;DHT22;9779;51.756;7.450;2022-08-04T05:21:43;22.40;99.90
19292;DHT22;9779;51.756;7.450;2022-08-04T05:24:12;22.40;99.90
19292;DHT22;9779;51.756;7.450;2022-08-04T05:26:43;22.40;99.90
19292;DHT22;9779;51.756;7.450;2022-08-04T05:29:12;22.40;99.90
19292;DHT22;9779;51.756;7.450;2022-08-04T05:31:45;22.50;99.90
19292;DHT22;9779;51.756;7.450;2022-08-04T05:34:19;22.50;99.90
19292;DHT22;9779;51.756;7.450;2022-08-04T05:36:48;22.60;99.90
19292;DHT22;9779;51.756;7.450;2022-08-04T05:39:19;22.70;99.90
19292;DHT22;9779;51.756;7.450;2022-08-04T05:41:47;22.70;99.90
19292;DHT22;9779;51.756;7.450;2022-08-04T05:44:17;22.70;99.90
19292;DHT22;9779;51.756;7.450;2022-08-04T05:46:47;22.80;99.90
19292;DHT22;9779;51.756;7.450;2022-08-04T05:49:13;22.80;99.90
19292;DHT22;9779;51.756;7.450;2022-08-04T05:51:39;22.80;99.90
19292;DHT22;9779;51.756;7.450;2022-08-04T05:54:06;22.90;99.90
19292;DHT22;9779;51.756;7.450;2022-08-04T05:56:32;22.90;99.90
19292;DHT22;9779;51.756;7.450;2022-08-04T05:58:59;22.90;99.90
19292;DHT22;9779;51.756;7.450;2022-08-04T06:01:28;22.90;99.90
19292;DHT22;9779;51.756;7.450;2022-08-04T06:03:58;22.90;99.90
19292;DHT22;9779;51.756;7.450;2022-08-04T06:06:25;23.00;99.90
19292;DHT22;9779;51.756;7.450;2022-08-04T06:08:51;23.00;99.90
19292;DHT22;9779;51.756;7.450;2022-08-04T06:11:18;23.00;99.90
19292;DHT22;9779;51.756;7.450;2022-08-04T06:13:55;23.00;99.90
19292;DHT22;9779;51.756;7.450;2022-08-04T06:16:24;23.10;99.90
19292;DHT22;9779;51.756;7.450;2022-08-04T06:18:52;23.10;99.90
19292;DHT22;9779;51.756;7.450;2022-08-04T06:21:21;23.20;99.90
19292;DHT22;9779;51.756;7.450;2022-08-04T06:23:48;23.20;99.90
19292;DHT22;9779;51.756;7.450;2022-08-04T06:26:15;23.20;99.90
19292;DHT22;9779;51.756;7.450;2022-08-04T06:28:49;23.30;99.90
19292;DHT22;9779;51.756;7.450;2022-08-04T06:31:18;23.30;99.90
19292;DHT22;9779;51.756;7.450;2022-08-04T06:34:07;23.30;99.90
19292;DHT22;9779;51.756;7.450;2022-08-04T06:36:34;23.40;99.90
19292;DHT22;9779;51.756;7.450;2022-08-04T06:39:03;23.40;99.90
19292;DHT22;9779;51.756;7.450;2022-08-04T06:41:29;23.50;99.90
19292;DHT22;9779;51.756;7.450;2022-08-04T06:44:01;23.50;99.90
19292;DHT22;9779;51.756;7.450;2022-08-04T06:46:29;23.50;99.90
19292;DHT22;9779;51.756;7.450;2022-08-04T06:48:56;23.60;99.90
19292;DHT22;9779;51.756;7.450;2022-08-04T06:51:22;23.60;99.90
19292;DHT22;9779;51.756;7.450;2022-08-04T06:53:48;23.60;99.90
19292;DHT22;9779;51.756;7.450;2022-08-04T06:56:16;23.70;99.90
19292;DHT22;9779;51.756;7.450;2022-08-04T06:58:44;23.70;99.90
19292;DHT22;9779;51.756;7.450;2022-08-04T07:01:12;23.80;99.90
19292;DHT22;9779;51.756;7.450;2022-08-04T07:03:38;23.90;99.90
19292;DHT22;9779;51.756;7.450;2022-08-04T07:06:04;23.90;99.90
19292;DHT22;9779;51.756;7.450;2022-08-04T07:08:30;24.00;99.90
19292;DHT22;9779;51.756;7.450;2022-08-04T07:10:56;24.10;99.90
19292;DHT22;9779;51.756;7.450;2022-08-04T07:13:24;24.10;99.90
19292;DHT22;9779;51.756;7.450;2022-08-04T07:15:51;24.20;99.90
19292;DHT22;9779;51.756;7.450;2022-08-04T07:18:18;24.40;99.90
19292;DHT22;9779;51.756;7.450;2022-08-04T07:20:44;24.40;99.90
19292;DHT22;9779;51.756;7.450;2022-08-04T07:23:12;24.50;99.90
19292;DHT22;9779;51.756;7.450;2022-08-04T07:25:42;24.60;99.90
19292;DHT22;9779;51.756;7.450;2022-08-04T07:28:08;24.70;99.90
19292;DHT22;9779;51.756;7.450;2022-08-04T07:30:34;24.80;99.90
19292;DHT22;9779;51.756;7.450;2022-08-04T07:33:00;24.90;99.90
19292;DHT22;9779;51.756;7.450;2022-08-04T07:35:27;25.00;99.90
19292;DHT22;9779;51.756;7.450;2022-08-04T07:37:53;25.10;99.90
19292;DHT22;9779;51.756;7.450;2022-08-04T07:40:19;25.30;99.90
19292;DHT22;9779;51.756;7.450;2022-08-04T07:42:45;25.40;99.90
19292;DHT22;9779;51.756;7.450;2022-08-04T07:45:11;25.60;99.90
19292;DHT22;9779;51.756;7.450;2022-08-04T07:47:37;25.70;99.90
19292;DHT22;9779;51.756;7.450;2022-08-04T07:50:08;25.80;99.90
19292;DHT22;9779;51.756;7.450;2022-08-04T07:52:33;25.90;99.90
19292;DHT22;9779;51.756;7.450;2022-08-04T07:55:01;26.00;99.90
19292;DHT22;9779;51.756;7.450;2022-08-04T07:57:26;26.20;99.90
19292;DHT22;9779;51.756;7.450;2022-08-04T07:59:52;26.20;99.90
19292;DHT22;9779;51.756;7.450;2022-08-04T08:02:19;26.40;99.90
19292;DHT22;9779;51.756;7.450;2022-08-04T08:04:46;26.50;99.90
19292;DHT22;9779;51.756;7.450;2022-08-04T08:07:12;26.60;99.90
19292;DHT22;9779;51.756;7.450;2022-08-04T08:09:38;26.70;99.90
19292;DHT22;9779;51.756;7.450;2022-08-04T08:12:05;26.80;99.90
19292;DHT22;9779;51.756;7.450;2022-08-04T08:14:31;26.90;99.90
19292;DHT22;9779;51.756;7.450;2022-08-04T08:16:59;26.90;99.90
19292;DHT22;9779;51.756;7.450;2022-08-04T08:19:29;27.00;99.90
19292;DHT22;9779;51.756;7.450;2022-08-04T08:21:54;27.20;99.90
19292;DHT22;9779;51.756;7.450;2022-08-04T08:24:20;27.20;99.90
19292;DHT22;9779;51.756;7.450;2022-08-04T08:26:46;27.30;99.90
19292;DHT22;9779;51.756;7.450;2022-08-04T08:29:11;27.40;99.90
19292;DHT22;9779;51.756;7.450;2022-08-04T08:31:37;27.60;99.90
19292;DHT22;9779;51.756;7.450;2022-08-04T08:34:03;27.70;99.90
19292;DHT22;9779;51.756;7.450;2022-08-04T08:36:45;27.70;99.90
19292;DHT22;9779;51.756;7.450;2022-08-04T08:39:23;27.80;99.90
19292;DHT22;9779;51.756;7.450;2022-08-04T08:50:26;28.30;99.90
19292;DHT22;9779;51.756;7.450;2022-08-04T08:58:58;28.60;99.90
19292;DHT22;9779;51.756;7.450;2022-08-04T09:12:32;29.30;99.90
19292;DHT22;9779;51.756;7.450;2022-08-04T09:15:04;29.20;99.90
19292;DHT22;9779;51.756;7.450;2022-08-04T09:17:39;29.20;99.90
19292;DHT22;9779;51.756;7.450;2022-08-04T09:20:12;29.30;99.90
19292;DHT22;9779;51.756;7.450;2022-08-04T09:22:53;29.50;99.90
19292;DHT22;9779;51.756;7.450;2022-08-04T09:31:10;30.40;99.90
19292;DHT22;9779;51.756;7.450;2022-08-04T09:36:27;30.20;99.90
19292;DHT22;9779;51.756;7.450;2022-08-04T09:39:21;30.40;99.90
19292;DHT22;9779;51.756;7.450;2022-08-04T09:47:52;30.80;99.60
19292;DHT22;9779;51.756;7.450;2022-08-04T09:50:39;31.10;99.40
19292;DHT22;9779;51.756;7.450;2022-08-04T10:01:37;31.70;95.70
19292;DHT22;9779;51.756;7.450;2022-08-04T10:04:08;31.70;96.00
19292;DHT22;9779;51.756;7.450;2022-08-04T10:07:17;31.80;96.00
19292;DHT22;9779;51.756;7.450;2022-08-04T10:15:33;32.30;93.30
19292;DHT22;9779;51.756;7.450;2022-08-04T10:18:27;32.60;92.80
19292;DHT22;9779;51.756;7.450;2022-08-04T10:21:13;32.90;92.80
19292;DHT22;9779;51.756;7.450;2022-08-04T10:26:51;33.00;91.80
19292;DHT22;9779;51.756;7.450;2022-08-04T10:37:22;33.40;86.00
19292;DHT22;9779;51.756;7.450;2022-08-04T10:40:06;33.20;84.20
19292;DHT22;9779;51.756;7.450;2022-08-04T10:43:01;33.10;86.00
19292;DHT22;9779;51.756;7.450;2022-08-04T10:45:35;33.00;84.10
19292;DHT22;9779;51.756;7.450;2022-08-04T10:48:10;32.90;87.30
19292;DHT22;9779;51.756;7.450;2022-08-04T10:53:23;32.70;90.30
19292;DHT22;9779;51.756;7.450;2022-08-04T10:56:02;32.70;90.00
19292;DHT22;9779;51.756;7.450;2022-08-04T10:58:34;32.80;90.30
19292;DHT22;9779;51.756;7.450;2022-08-04T11:01:01;33.10;87.40
19292;DHT22;9779;51.756;7.450;2022-08-04T11:03:39;33.20;81.30
19292;DHT22;9779;51.756;7.450;2022-08-04T11:06:08;33.40;81.50
19292;DHT22;9779;51.756;7.450;2022-08-04T11:08:38;33.40;79.90
19292;DHT22;9779;51.756;7.450;2022-08-04T11:13:43;33.20;78.80
19292;DHT22;9779;51.756;7.450;2022-08-04T11:16:18;33.20;79.10
19292;DHT22;9779;51.756;7.450;2022-08-04T11:21:19;33.30;77.90
19292;DHT22;9779;51.756;7.450;2022-08-04T11:24:05;33.60;76.80
19292;DHT22;9779;51.756;7.450;2022-08-04T11:26:47;33.70;74.80
19292;DHT22;9779;51.756;7.450;2022-08-04T11:29:31;34.00;75.10
19292;DHT22;9779;51.756;7.450;2022-08-04T11:31:59;34.30;73.30
19292;DHT22;9779;51.756;7.450;2022-08-04T11:34:27;34.30;70.10
19292;DHT22;9779;51.756;7.450;2022-08-04T11:37:07;34.10;71.30
19292;DHT22;9779;51.756;7.450;2022-08-04T11:40:03;34.00;73.60
19292;DHT22;9779;51.756;7.450;2022-08-04T11:42:40;33.80;75.10
19292;DHT22;9779;51.756;7.450;2022-08-04T11:45:14;33.70;77.20
19292;DHT22;9779;51.756;7.450;2022-08-04T11:47:48;33.70;74.80
19292;DHT22;9779;51.756;7.450;2022-08-04T11:50:54;33.80;74.10
19292;DHT22;9779;51.756;7.450;2022-08-04T11:53:17;34.00;71.10
19292;DHT22;9779;51.756;7.450;2022-08-04T11:55:45;34.00;72.40
19292;DHT22;9779;51.756;7.450;2022-08-04T11:58:13;33.90;71.90
19292;DHT22;9779;51.756;7.450;2022-08-04T12:00:50;33.70;71.50
19292;DHT22;9779;51.756;7.450;2022-08-04T12:06:29;33.10;71.30
19292;DHT22;9779;51.756;7.450;2022-08-04T12:09:06;33.10;70.20
19292;DHT22;9779;51.756;7.450;2022-08-04T12:14:25;33.10;69.70
19292;DHT22;9779;51.756;7.450;2022-08-04T12:17:01;33.20;71.60
19292;DHT22;9779;51.756;7.450;2022-08-04T12:19:36;33.40;69.00
19292;DHT22;9779;51.756;7.450;2022-08-04T12:22:09;33.30;67.10
19292;DHT22;9779;51.756;7.450;2022-08-04T12:24:40;33.30;68.20
19292;DHT22;9779;51.756;7.450;2022-08-04T12:27:14;33.30;68.70
19292;DHT22;9779;51.756;7.450;2022-08-04T12:29:41;33.30;70.20
19292;DHT22;9779;51.756;7.450;2022-08-04T12:45:52;32.40;79.60
19292;DHT22;9779;51.756;7.450;2022-08-04T12:48:21;32.20;80.10
19292;DHT22;9779;51.756;7.450;2022-08-04T12:50:49;32.00;81.00
19292;DHT22;9779;51.756;7.450;2022-08-04T12:53:17;31.80;81.30
19292;DHT22;9779;51.756;7.450;2022-08-04T12:55:46;31.70;81.90
19292;DHT22;9779;51.756;7.450;2022-08-04T12:58:17;31.40;84.60
19292;DHT22;9779;51.756;7.450;2022-08-04T13:01:06;31.30;86.60
19292;DHT22;9779;51.756;7.450;2022-08-04T13:03:38;31.20;86.50
19292;DHT22;9779;51.756;7.450;2022-08-04T13:06:05;31.00;87.20
19292;DHT22;9779;51.756;7.450;2022-08-04T13:08:35;30.90;86.50
19292;DHT22;9779;51.756;7.450;2022-08-04T13:11:02;30.80;86.80
19292;DHT22;9779;51.756;7.450;2022-08-04T13:13:32;30.60;87.50
19292;DHT22;9779;51.756;7.450;2022-08-04T13:16:06;30.60;88.70
19292;DHT22;9779;51.756;7.450;2022-08-04T13:18:38;30.50;89.80
19292;DHT22;9779;51.756;7.450;2022-08-04T13:21:18;30.40;91.20
19292;DHT22;9779;51.756;7.450;2022-08-04T13:23:56;30.30;92.70
19292;DHT22;9779;51.756;7.450;2022-08-04T13:26:23;30.30;94.00
19292;DHT22;9779;51.756;7.450;2022-08-04T13:28:51;30.30;95.20
19292;DHT22;9779;51.756;7.450;2022-08-04T13:31:22;30.20;95.60
19292;DHT22;9779;51.756;7.450;2022-08-04T13:33:51;30.20;96.10
19292;DHT22;9779;51.756;7.450;2022-08-04T13:36:17;30.30;96.10
19292;DHT22;9779;51.756;7.450;2022-08-04T13:38:52;30.30;96.30
19292;DHT22;9779;51.756;7.450;2022-08-04T13:41:18;30.30;95.60
19292;DHT22;9779;51.756;7.450;2022-08-04T13:43:51;30.30;95.40
19292;DHT22;9779;51.756;7.450;2022-08-04T13:46:21;30.40;95.50
19292;DHT22;9779;51.756;7.450;2022-08-04T13:48:48;30.20;95.40
19292;DHT22;9779;51.756;7.450;2022-08-04T13:51:17;30.20;96.20
19292;DHT22;9779;51.756;7.450;2022-08-04T13:53:45;30.10;96.20
19292;DHT22;9779;51.756;7.450;2022-08-04T13:56:19;30.30;96.50
19292;DHT22;9779;51.756;7.450;2022-08-04T13:58:46;30.30;96.30
19292;DHT22;9779;51.756;7.450;2022-08-04T14:01:26;30.30;96.50
19292;DHT22;9779;51.756;7.450;2022-08-04T14:04:17;30.40;97.10
19292;DHT22;9779;51.756;7.450;2022-08-04T14:09:27;30.60;97.10
19292;DHT22;9779;51.756;7.450;2022-08-04T14:11:55;30.60;96.80
19292;DHT22;9779;51.756;7.450;2022-08-04T14:14:30;30.60;97.30
19292;DHT22;9779;51.756;7.450;2022-08-04T14:17:02;30.60;97.90
19292;DHT22;9779;51.756;7.450;2022-08-04T14:25:09;31.00;97.10
19292;DHT22;9779;51.756;7.450;2022-08-04T14:27:53;31.20;96.60
19292;DHT22;9779;51.756;7.450;2022-08-04T14:30:33;31.50;97.40
19292;DHT22;9779;51.756;7.450;2022-08-04T14:33:10;31.60;97.50
19292;DHT22;9779;51.756;7.450;2022-08-04T14:35:36;31.60;97.10
19292;DHT22;9779;51.756;7.450;2022-08-04T14:38:07;31.60;96.10
19292;DHT22;9779;51.756;7.450;2022-08-04T14:40:39;31.60;95.60
19292;DHT22;9779;51.756;7.450;2022-08-04T14:43:06;31.70;96.30
19292;DHT22;9779;51.756;7.450;2022-08-04T14:45:39;31.60;95.80
19292;DHT22;9779;51.756;7.450;2022-08-04T14:48:09;31.60;95.70
19292;DHT22;9779;51.756;7.450;2022-08-04T14:50:43;31.60;95.90
19292;DHT22;9779;51.756;7.450;2022-08-04T14:53:12;31.70;95.80
19292;DHT22;9779;51.756;7.450;2022-08-04T14:55:42;31.70;97.00
19292;DHT22;9779;51.756;7.450;2022-08-04T14:58:18;31.80;95.70
19292;DHT22;9779;51.756;7.450;2022-08-04T15:00:44;31.70;95.20
19292;DHT22;9779;51.756;7.450;2022-08-04T15:03:10;31.60;94.90
19292;DHT22;9779;51.756;7.450;2022-08-04T15:05:37;31.70;95.30
19292;DHT22;9779;51.756;7.450;2022-08-04T15:08:04;31.80;94.90
19292;DHT22;9779;51.756;7.450;2022-08-04T15:10:30;31.70;94.70
19292;DHT22;9779;51.756;7.450;2022-08-04T15:12:56;31.60;94.30
19292;DHT22;9779;51.756;7.450;2022-08-04T15:15:24;31.60;94.70
19292;DHT22;9779;51.756;7.450;2022-08-04T15:17:53;31.50;94.50
19292;DHT22;9779;51.756;7.450;2022-08-04T15:20:20;31.50;94.70
19292;DHT22;9779;51.756;7.450;2022-08-04T15:22:45;31.50;94.30
19292;DHT22;9779;51.756;7.450;2022-08-04T15:25:11;31.30;93.70
19292;DHT22;9779;51.756;7.450;2022-08-04T15:27:38;31.30;94.50
19292;DHT22;9779;51.756;7.450;2022-08-04T15:30:09;31.30;94.80
19292;DHT22;9779;51.756;7.450;2022-08-04T15:32:45;31.30;94.40
19292;DHT22;9779;51.756;7.450;2022-08-04T15:35:16;31.20;93.30
19292;DHT22;9779;51.756;7.450;2022-08-04T15:40:46;31.00;92.70
19292;DHT22;9779;51.756;7.450;2022-08-04T15:43:23;30.90;92.50
19292;DHT22;9779;51.756;7.450;2022-08-04T15:45:57;31.00;93.30
19292;DHT22;9779;51.756;7.450;2022-08-04T15:48:25;30.90;93.20
19292;DHT22;9779;51.756;7.450;2022-08-04T15:53:19;30.80;93.70
19292;DHT22;9779;51.756;7.450;2022-08-04T15:55:45;30.70;93.80
19292;DHT22;9779;51.756;7.450;2022-08-04T15:58:15;30.60;94.00
19292;DHT22;9779;51.756;7.450;2022-08-04T16:19:06;30.10;98.10
19292;DHT22;9779;51.756;7.450;2022-08-04T16:21:33;30.10;98.40
19292;DHT22;9779;51.756;7.450;2022-08-04T16:24:26;30.10;98.90
19292;DHT22;9779;51.756;7.450;2022-08-04T16:26:55;30.10;99.00
19292;DHT22;9779;51.756;7.450;2022-08-04T16:34:40;29.90;99.90
19292;DHT22;9779;51.756;7.450;2022-08-04T16:37:09;29.80;99.90
19292;DHT22;9779;51.756;7.450;2022-08-04T16:39:35;29.70;99.90
19292;DHT22;9779;51.756;7.450;2022-08-04T16:45:09;29.50;99.90
19292;DHT22;9779;51.756;7.450;2022-08-04T16:50:21;29.40;99.90
19292;DHT22;9779;51.756;7.450;2022-08-04T16:52:53;29.30;99.90
19292;DHT22;9779;51.756;7.450;2022-08-04T16:55:21;29.20;99.90
19292;DHT22;9779;51.756;7.450;2022-08-04T16:57:48;29.10;99.90
19292;DHT22;9779;51.756;7.450;2022-08-04T17:00:14;29.40;99.90
19292;DHT22;9779;51.756;7.450;2022-08-04T17:02:40;29.60;99.90
19292;DHT22;9779;51.756;7.450;2022-08-04T17:05:19;29.50;99.90
19292;DHT22;9779;51.756;7.450;2022-08-04T17:07:56;29.50;99.90
19292;DHT22;9779;51.756;7.450;2022-08-04T17:10:35;29.40;99.90
19292;DHT22;9779;51.756;7.450;2022-08-04T17:13:25;29.40;99.90
19292;DHT22;9779;51.756;7.450;2022-08-04T17:15:53;29.60;99.90
19292;DHT22;9779;51.756;7.450;2022-08-04T17:18:22;29.80;99.90
19292;DHT22;9779;51.756;7.450;2022-08-04T17:20:49;29.90;99.90
19292;DHT22;9779;51.756;7.450;2022-08-04T17:23:41;30.00;99.90
19292;DHT22;9779;51.756;7.450;2022-08-04T17:26:10;30.20;99.90
19292;DHT22;9779;51.756;7.450;2022-08-04T17:28:37;30.10;99.90
19292;DHT22;9779;51.756;7.450;2022-08-04T17:31:04;30.10;99.90
19292;DHT22;9779;51.756;7.450;2022-08-04T17:33:31;30.10;99.90
19292;DHT22;9779;51.756;7.450;2022-08-04T17:35:59;30.00;99.90
19292;DHT22;9779;51.756;7.450;2022-08-04T17:38:54;30.10;99.90
19292;DHT22;9779;51.756;7.450;2022-08-04T17:41:23;30.00;99.90
19292;DHT22;9779;51.756;7.450;2022-08-04T17:43:54;29.80;99.90
19292;DHT22;9779;51.756;7.450;2022-08-04T17:46:33;29.70;99.90
19292;DHT22;9779;51.756;7.450;2022-08-04T17:51:35;29.60;99.90
19292;DHT22;9779;51.756;7.450;2022-08-04T17:54:02;29.40;99.90
19292;DHT22;9779;51.756;7.450;2022-08-04T17:56:46;29.20;99.90
19292;DHT22;9779;51.756;7.450;2022-08-04T18:04:30;28.90;99.90
19292;DHT22;9779;51.756;7.450;2022-08-04T18:07:00;28.80;99.90
19292;DHT22;9779;51.756;7.450;2022-08-04T18:09:29;28.70;99.90
19292;DHT22;9779;51.756;7.450;2022-08-04T18:11:59;28.60;99.90
19292;DHT22;9779;51.756;7.450;2022-08-04T18:14:40;28.50;99.90
19292;DHT22;9779;51.756;7.450;2022-08-04T18:17:06;28.40;99.90
19292;DHT22;9779;51.756;7.450;2022-08-04T18:19:32;28.30;99.90
19292;DHT22;9779;51.756;7.450;2022-08-04T18:21:58;28.10;99.90
19292;DHT22;9779;51.756;7.450;2022-08-04T18:24:24;28.00;99.90
19292;DHT22;9779;51.756;7.450;2022-08-04T18:26:51;28.00;99.90
19292;DHT22;9779;51.756;7.450;2022-08-04T18:29:17;27.90;99.90
19292;DHT22;9779;51.756;7.450;2022-08-04T18:31:42;27.90;99.90
19292;DHT22;9779;51.756;7.450;2022-08-04T18:34:08;27.80;99.90
19292;DHT22;9779;51.756;7.450;2022-08-04T18:36:35;27.70;99.90
19292;DHT22;9779;51.756;7.450;2022-08-04T18:39:02;27.60;99.90
19292;DHT22;9779;51.756;7.450;2022-08-04T18:41:28;27.60;99.90
19292;DHT22;9779;51.756;7.450;2022-08-04T18:43:55;27.50;99.90
19292;DHT22;9779;51.756;7.450;2022-08-04T18:46:21;27.50;99.90
19292;DHT22;9779;51.756;7.450;2022-08-04T18:48:47;27.40;99.90
19292;DHT22;9779;51.756;7.450;2022-08-04T18:51:13;27.30;99.90
19292;DHT22;9779;51.756;7.450;2022-08-04T18:53:38;27.30;99.90
19292;DHT22;9779;51.756;7.450;2022-08-04T18:56:04;27.30;99.90
19292;DHT22;9779;51.756;7.450;2022-08-04T18:58:30;27.30;99.90
19292;DHT22;9779;51.756;7.450;2022-08-04T19:00:55;27.20;99.90
19292;DHT22;9779;51.756;7.450;2022-08-04T19:03:21;27.10;99.90
19292;DHT22;9779;51.756;7.450;2022-08-04T19:05:47;27.10;99.90
19292;DHT22;9779;51.756;7.450;2022-08-04T19:08:13;27.10;99.90
19292;DHT22;9779;51.756;7.450;2022-08-04T19:10:38;27.00;99.90
19292;DHT22;9779;51.756;7.450;2022-08-04T19:13:04;26.90;99.90
19292;DHT22;9779;51.756;7.450;2022-08-04T19:15:29;26.90;99.90
19292;DHT22;9779;51.756;7.450;2022-08-04T19:17:56;26.80;99.90
19292;DHT22;9779;51.756;7.450;2022-08-04T19:20:21;26.70;99.90
19292;DHT22;9779;51.756;7.450;2022-08-04T19:22:47;26.60;99.90
19292;DHT22;9779;51.756;7.450;2022-08-04T19:25:13;26.60;99.90
19292;DHT22;9779;51.756;7.450;2022-08-04T19:27:38;26.60;99.90
19292;DHT22;9779;51.756;7.450;2022-08-04T19:30:04;26.50;99.90
19292;DHT22;9779;51.756;7.450;2022-08-04T19:32:30;26.40;99.90
19292;DHT22;9779;51.756;7.450;2022-08-04T19:34:56;26.50;99.90
19292;DHT22;9779;51.756;7.450;2022-08-04T19:37:21;26.40;99.90
19292;DHT22;9779;51.756;7.450;2022-08-04T19:39:47;26.50;99.90
19292;DHT22;9779;51.756;7.450;2022-08-04T19:42:13;26.50;99.90
19292;DHT22;9779;51.756;7.450;2022-08-04T19:44:38;26.40;99.90
19292;DHT22;9779;51.756;7.450;2022-08-04T19:47:04;26.30;99.90
19292;DHT22;9779;51.756;7.450;2022-08-04T19:49:30;26.20;99.90
19292;DHT22;9779;51.756;7.450;2022-08-04T19:51:55;26.30;99.90
19292;DHT22;9779;51.756;7.450;2022-08-04T19:54:21;26.20;99.90
19292;DHT22;9779;51.756;7.450;2022-08-04T19:56:46;26.20;99.90
19292;DHT22;9779;51.756;7.450;2022-08-04T19:59:12;26.20;99.90
19292;DHT22;9779;51.756;7.450;2022-08-04T20:01:38;26.20;99.90
19292;DHT22;9779;51.756;7.450;2022-08-04T20:04:04;26.10;99.90
19292;DHT22;9779;51.756;7.450;2022-08-04T20:06:30;26.10;99.90
19292;DHT22;9779;51.756;7.450;2022-08-04T20:08:56;26.10;99.90
19292;DHT22;9779;51.756;7.450;2022-08-04T20:11:21;26.10;99.90
19292;DHT22;9779;51.756;7.450;2022-08-04T20:13:47;26.00;99.90
19292;DHT22;9779;51.756;7.450;2022-08-04T20:16:13;26.00;99.90
19292;DHT22;9779;51.756;7.450;2022-08-04T20:18:39;25.90;99.90
19292;DHT22;9779;51.756;7.450;2022-08-04T20:21:05;25.90;99.90
19292;DHT22;9779;51.756;7.450;2022-08-04T20:23:30;25.80;99.90
19292;DHT22;9779;51.756;7.450;2022-08-04T20:25:56;25.70;99.90
19292;DHT22;9779;51.756;7.450;2022-08-04T20:28:22;25.70;99.90
19292;DHT22;9779;51.756;7.450;2022-08-04T20:30:48;25.70;99.90
19292;DHT22;9779;51.756;7.450;2022-08-04T20:33:13;25.60;99.90
19292;DHT22;9779;51.756;7.450;2022-08-04T20:35:39;25.60;99.90
19292;DHT22;9779;51.756;7.450;2022-08-04T20:38:04;25.60;99.90